createdAt,value
2022-11-07T00:00:36.538Z,9.95
2022-11-07T00:03:03.008Z,9.60
2022-11-07T00:05:29.451Z,10.43
2022-11-07T00:07:55.822Z,10.05
2022-11-07T00:10:22.147Z,10.20
2022-11-07T00:12:48.508Z,10.43
2022-11-07T00:15:14.868Z,10.52
2022-11-07T00:17:41.182Z,10.02
2022-11-07T00:20:08.055Z,10.05
2022-11-07T00:22:34.445Z,10.98
2022-11-07T00:25:00.805Z,9.68
2022-11-07T00:27:27.380Z,9.90
2022-11-07T00:29:53.864Z,9.43
2022-11-07T00:32:22.062Z,9.38
2022-11-07T00:34:48.646Z,9.23
2022-11-07T00:37:15.007Z,9.27
2022-11-07T00:39:41.445Z,9.75
2022-11-07T00:42:07.809Z,9.70
2022-11-07T00:44:34.166Z,8.95
2022-11-07T00:47:00.521Z,8.57
2022-11-07T00:49:26.922Z,7.95
2022-11-07T00:51:53.263Z,8.00
2022-11-07T00:54:19.721Z,9.13
2022-11-07T00:56:46.097Z,6.97
2022-11-07T00:59:13.078Z,7.22
2022-11-07T01:01:39.813Z,6.28
2022-11-07T01:04:25.067Z,7.00
2022-11-07T01:06:51.439Z,6.30
2022-11-07T01:09:21.146Z,5.93
2022-11-07T01:11:48.421Z,6.20
2022-11-07T01:14:17.406Z,6.18
2022-11-07T01:16:44.040Z,5.78
2022-11-07T01:19:10.721Z,5.47
2022-11-07T01:21:39.216Z,5.57
2022-11-07T01:24:07.797Z,6.30
2022-11-07T01:26:34.201Z,5.80
2022-11-07T01:29:00.564Z,5.88
2022-11-07T01:31:27.166Z,5.63
2022-11-07T01:33:53.488Z,5.25
2022-11-07T01:36:19.850Z,5.60
2022-11-07T01:38:48.571Z,5.53
2022-11-07T01:41:22.782Z,6.10
2022-11-07T01:44:09.376Z,5.15
2022-11-07T01:46:40.923Z,4.78
2022-11-07T01:49:13.467Z,5.72
2022-11-07T01:52:00.854Z,5.32
2022-11-07T01:54:32.179Z,5.25
2022-11-07T01:57:03.518Z,4.80
2022-11-07T01:59:31.487Z,5.40
2022-11-07T02:01:58.779Z,5.40
2022-11-07T02:04:29.347Z,5.18
2022-11-07T02:07:05.721Z,5.72
2022-11-07T02:09:32.232Z,4.88
2022-11-07T02:12:00.925Z,5.50
2022-11-07T02:14:28.805Z,5.75
2022-11-07T02:16:56.082Z,6.28
2022-11-07T02:19:41.407Z,5.82
2022-11-07T02:22:29.505Z,5.57
2022-11-07T02:24:59.652Z,5.43
2022-11-07T02:27:29.297Z,5.90
2022-11-07T02:30:00.614Z,5.78
2022-11-07T02:32:26.984Z,5.90
2022-11-07T02:35:02.063Z,6.10
2022-11-07T02:37:33.553Z,5.80
2022-11-07T02:40:03.470Z,5.72
2022-11-07T02:42:43.231Z,5.45
2022-11-07T02:45:18.722Z,5.63
2022-11-07T02:47:45.299Z,6.05
2022-11-07T02:50:14.329Z,5.63
2022-11-07T02:52:40.964Z,5.22
2022-11-07T02:55:08.516Z,5.18
2022-11-07T02:57:35.242Z,5.50
2022-11-07T03:00:02.093Z,5.43
2022-11-07T03:02:28.780Z,6.03
2022-11-07T03:04:55.521Z,5.72
2022-11-07T03:07:21.829Z,5.68
2022-11-07T03:09:48.237Z,5.35
2022-11-07T03:12:14.700Z,5.32
2022-11-07T03:14:41.053Z,5.82
2022-11-07T03:17:07.694Z,5.88
2022-11-07T03:19:34.021Z,6.20
2022-11-07T03:22:00.678Z,6.53
2022-11-07T03:24:27.989Z,5.85
2022-11-07T03:26:54.458Z,5.75
2022-11-07T03:29:20.777Z,6.40
2022-11-07T03:31:47.102Z,6.18
2022-11-07T03:34:13.447Z,6.68
2022-11-07T03:36:40.549Z,6.45
2022-11-07T03:39:06.934Z,6.18
2022-11-07T03:41:33.282Z,6.38
2022-11-07T03:44:01.661Z,5.82
2022-11-07T03:46:28.028Z,5.88
2022-11-07T03:48:54.363Z,5.47
2022-11-07T03:51:20.723Z,6.30
2022-11-07T03:53:47.062Z,6.15
2022-11-07T03:56:15.424Z,6.35
2022-11-07T03:58:41.825Z,6.20
2022-11-07T04:01:10.405Z,7.10
2022-11-07T04:03:36.791Z,6.97
2022-11-07T04:06:03.178Z,6.88
2022-11-07T04:08:29.557Z,7.68
2022-11-07T04:10:55.880Z,7.20
2022-11-07T04:13:40.784Z,7.60
2022-11-07T04:16:28.515Z,7.20
2022-11-07T04:18:55.926Z,7.50
2022-11-07T04:21:22.742Z,7.63
2022-11-07T04:23:49.158Z,7.10
2022-11-07T04:26:34.583Z,6.93
2022-11-07T04:29:01.006Z,6.45
2022-11-07T04:31:27.368Z,6.38
2022-11-07T04:33:53.736Z,6.40
2022-11-07T04:36:20.184Z,6.45
2022-11-07T04:38:46.544Z,6.18
2022-11-07T04:41:21.066Z,7.68
2022-11-07T04:43:47.642Z,6.72
2022-11-07T04:46:14.831Z,6.70
2022-11-07T04:48:41.182Z,6.45
2022-11-07T04:51:13.790Z,7.25
2022-11-07T04:53:40.107Z,6.78
2022-11-07T04:56:06.895Z,6.90
2022-11-07T04:58:33.261Z,7.20
2022-11-07T05:00:59.609Z,8.25
2022-11-07T05:03:25.935Z,8.05
2022-11-07T05:05:52.387Z,8.40
2022-11-07T05:08:18.750Z,7.45
2022-11-07T05:10:45.114Z,9.20
2022-11-07T05:13:11.581Z,8.40
2022-11-07T05:15:38.314Z,9.02
2022-11-07T05:18:04.786Z,9.40
2022-11-07T05:20:35.296Z,9.20
2022-11-07T05:23:20.765Z,8.55
2022-11-07T05:25:50.220Z,7.85
2022-11-07T05:28:33.698Z,8.75
2022-11-07T05:31:04.203Z,7.65
2022-11-07T05:33:30.624Z,7.75
2022-11-07T05:35:57.005Z,7.90
2022-11-07T05:38:23.346Z,8.57
2022-11-07T05:40:49.748Z,9.00
2022-11-07T05:43:16.580Z,8.77
2022-11-07T05:45:43.310Z,8.88
2022-11-07T05:48:12.658Z,7.57
2022-11-07T05:50:39.593Z,8.38
2022-11-07T05:53:06.798Z,8.15
2022-11-07T05:55:33.360Z,8.88
2022-11-07T05:58:05.764Z,9.75
2022-11-07T06:00:33.327Z,9.43
2022-11-07T06:03:02.711Z,9.18
2022-11-07T06:05:29.434Z,9.95
2022-11-07T06:07:57.100Z,9.60
2022-11-07T06:10:24.512Z,8.90
2022-11-07T06:13:02.135Z,8.95
2022-11-07T06:15:30.620Z,9.27
2022-11-07T06:18:00.197Z,9.10
2022-11-07T06:20:26.955Z,10.00
2022-11-07T06:22:59.757Z,8.85
2022-11-07T06:25:27.463Z,9.30
2022-11-07T06:27:58.222Z,9.57
2022-11-07T06:30:24.569Z,8.98
2022-11-07T06:32:50.906Z,9.00
2022-11-07T06:35:17.564Z,8.68
2022-11-07T06:37:43.914Z,7.85
2022-11-07T06:40:11.031Z,8.15
2022-11-07T06:42:37.748Z,6.97
2022-11-07T06:45:04.735Z,7.60
2022-11-07T06:47:31.092Z,8.13
2022-11-07T06:49:57.417Z,6.85
2022-11-07T06:52:23.747Z,6.70
2022-11-07T06:54:50.179Z,7.75
2022-11-07T06:57:16.636Z,7.13
2022-11-07T06:59:46.495Z,7.28
2022-11-07T07:02:30.816Z,7.90
2022-11-07T07:05:03.376Z,7.07
2022-11-07T07:07:29.846Z,8.00
2022-11-07T07:09:56.217Z,6.95
2022-11-07T07:12:22.640Z,7.05
2022-11-07T07:14:50.058Z,7.50
2022-11-07T07:17:16.613Z,6.43
2022-11-07T07:19:43.042Z,5.97
2022-11-07T07:22:16.429Z,6.22
2022-11-07T07:24:42.976Z,6.95
2022-11-07T07:27:09.423Z,6.47
2022-11-07T07:29:35.854Z,7.05
2022-11-07T07:32:03.278Z,6.78
2022-11-07T07:34:29.666Z,6.90
2022-11-07T07:36:56.130Z,9.07
2022-11-07T07:39:23.967Z,12.13
2022-11-07T07:41:50.739Z,20.30
2022-11-07T07:44:17.066Z,25.30
2022-11-07T07:46:43.391Z,26.05
2022-11-07T07:49:09.940Z,7.78
2022-11-07T07:51:36.464Z,8.13
2022-11-07T07:54:02.980Z,22.50
2022-11-07T07:56:29.396Z,6.03
2022-11-07T07:58:55.721Z,6.03
2022-11-07T08:01:22.232Z,4.80
2022-11-07T08:04:03.176Z,5.93
2022-11-07T08:06:30.904Z,6.55
2022-11-07T08:08:57.220Z,5.53
2022-11-07T08:11:24.701Z,6.00
2022-11-07T08:13:51.083Z,5.85
2022-11-07T08:16:17.535Z,5.68
2022-11-07T08:18:43.984Z,5.75
2022-11-07T08:21:10.558Z,6.82
2022-11-07T08:23:37.028Z,6.05
2022-11-07T08:26:04.626Z,6.65
2022-11-07T08:28:34.235Z,5.97
2022-11-07T08:31:04.821Z,5.40
2022-11-07T08:33:31.603Z,5.70
2022-11-07T08:36:02.561Z,5.53
2022-11-07T08:38:30.551Z,6.00
2022-11-07T08:40:57.908Z,6.30
2022-11-07T08:43:24.420Z,5.68
2022-11-07T08:45:52.724Z,5.60
2022-11-07T08:48:19.469Z,5.30
2022-11-07T08:50:45.888Z,5.63
2022-11-07T08:53:14.329Z,4.47
2022-11-07T08:55:40.739Z,4.65
2022-11-07T08:58:08.296Z,4.47
2022-11-07T09:00:36.228Z,4.00
2022-11-07T09:05:51.881Z,4.50
2022-11-07T09:08:19.211Z,4.55
2022-11-07T09:10:51.813Z,4.63
2022-11-07T09:13:20.514Z,4.60
2022-11-07T09:15:51.079Z,5.07
2022-11-07T09:18:18.925Z,5.55
2022-11-07T09:20:45.397Z,4.75
2022-11-07T09:23:11.818Z,4.95
2022-11-07T09:25:39.217Z,4.65
2022-11-07T09:28:05.798Z,4.43
2022-11-07T09:30:32.687Z,3.47
2022-11-07T09:32:59.839Z,3.35
2022-11-07T09:35:26.717Z,3.50
2022-11-07T09:37:53.130Z,3.50
2022-11-07T09:40:19.519Z,3.40
2022-11-07T09:43:00.846Z,3.65
2022-11-07T09:45:30.176Z,3.25
2022-11-07T09:48:05.164Z,2.83
2022-11-07T09:50:37.899Z,2.85
2022-11-07T09:53:16.826Z,3.13
2022-11-07T09:55:51.409Z,2.67
2022-11-07T09:58:28.534Z,3.10
2022-11-07T10:01:02.883Z,2.90
2022-11-07T10:03:29.960Z,2.47
2022-11-07T10:06:24.568Z,3.38
2022-11-07T10:08:53.950Z,2.88
2022-11-07T10:11:31.309Z,2.35
2022-11-07T10:14:04.718Z,2.53
2022-11-07T10:16:34.768Z,2.05
2022-11-07T10:19:30.643Z,1.80
2022-11-07T10:22:40.528Z,2.08
2022-11-07T10:25:24.814Z,2.00
2022-11-07T10:28:05.074Z,1.80
2022-11-07T10:30:31.521Z,1.88
2022-11-07T10:33:19.414Z,2.05
2022-11-07T10:35:52.293Z,1.63
2022-11-07T10:38:30.154Z,1.50
2022-11-07T10:40:56.702Z,1.90
2022-11-07T10:43:36.516Z,1.80
2022-11-07T10:46:05.396Z,2.05
2022-11-07T10:48:33.082Z,1.85
2022-11-07T10:50:59.432Z,1.85
2022-11-07T10:53:26.387Z,2.00
2022-11-07T10:55:54.976Z,1.95
2022-11-07T10:58:22.943Z,1.55
2022-11-07T11:01:01.492Z,1.83
2022-11-07T11:03:43.681Z,1.50
2022-11-07T11:06:27.821Z,2.00
2022-11-07T11:08:54.432Z,1.67
2022-11-07T11:11:20.788Z,1.63
2022-11-07T11:13:48.633Z,1.52
2022-11-07T11:16:28.303Z,1.40
2022-11-07T11:18:59.753Z,1.70
2022-11-07T11:21:26.682Z,1.85
2022-11-07T11:23:54.902Z,1.23
2022-11-07T11:26:28.504Z,1.38
2022-11-07T11:28:59.587Z,1.40
2022-11-07T11:31:33.131Z,2.30
2022-11-07T11:34:15.374Z,1.30
2022-11-07T11:36:51.702Z,0.95
2022-11-07T11:39:43.449Z,0.93
2022-11-07T11:42:32.115Z,1.00
2022-11-07T11:45:09.298Z,1.25
2022-11-07T11:47:42.719Z,0.90
2022-11-07T11:50:16.688Z,0.90
2022-11-07T11:52:43.969Z,1.30
2022-11-07T11:55:19.036Z,0.95
2022-11-07T11:58:10.319Z,1.25
2022-11-07T12:00:45.596Z,0.88
2022-11-07T12:03:36.860Z,1.05
2022-11-07T12:06:15.215Z,1.20
2022-11-07T12:09:15.336Z,0.82
2022-11-07T12:12:12.858Z,0.80
2022-11-07T12:15:23.142Z,1.35
2022-11-07T12:17:58.849Z,1.10
2022-11-07T12:20:37.178Z,0.70
2022-11-07T12:23:19.355Z,0.63
2022-11-07T12:25:53.683Z,1.30
2022-11-07T12:28:28.849Z,0.82
2022-11-07T12:31:44.372Z,1.00
2022-11-07T12:34:43.218Z,0.90
2022-11-07T12:37:38.545Z,0.88
2022-11-07T12:40:14.243Z,0.93
2022-11-07T12:42:59.926Z,1.50
2022-11-07T12:45:51.141Z,1.00
2022-11-07T12:48:37.067Z,1.25
2022-11-07T12:51:39.103Z,0.95
2022-11-07T12:54:21.420Z,0.90
2022-11-07T12:56:49.396Z,1.00
2022-11-07T12:59:36.874Z,0.80
2022-11-07T13:02:18.175Z,1.40
2022-11-07T13:04:58.075Z,1.02
2022-11-07T13:07:50.160Z,1.17
2022-11-07T13:10:24.070Z,0.70
2022-11-07T13:13:05.310Z,1.20
2022-11-07T13:15:53.868Z,0.98
2022-11-07T13:18:27.372Z,1.00
2022-11-07T13:21:06.117Z,1.00
2022-11-07T13:23:33.759Z,1.10
2022-11-07T13:26:14.863Z,1.13
2022-11-07T13:28:58.254Z,0.77
2022-11-07T13:31:37.669Z,1.08
2022-11-07T13:34:19.257Z,1.13
2022-11-07T13:36:48.294Z,0.70
2022-11-07T13:39:16.092Z,0.80
2022-11-07T13:41:46.689Z,0.90
2022-11-07T13:44:28.404Z,1.10
2022-11-07T13:46:59.355Z,1.05
2022-11-07T13:49:32.258Z,2.25
2022-11-07T13:52:04.159Z,0.98
2022-11-07T13:54:53.110Z,1.30
2022-11-07T13:57:29.067Z,1.55
2022-11-07T14:00:01.466Z,1.55
2022-11-07T14:02:30.708Z,3.00
2022-11-07T14:05:16.424Z,2.72
2022-11-07T14:07:48.919Z,1.60
2022-11-07T14:10:20.719Z,4.20
2022-11-07T14:12:47.824Z,3.88
2022-11-07T14:15:16.645Z,2.38
2022-11-07T14:17:45.333Z,1.52
2022-11-07T14:20:16.790Z,1.00
2022-11-07T14:22:56.360Z,1.02
2022-11-07T14:25:32.431Z,2.92
2022-11-07T14:28:00.038Z,1.83
2022-11-07T14:30:29.168Z,2.17
2022-11-07T14:33:01.464Z,8.10
2022-11-07T14:35:33.267Z,3.53
2022-11-07T14:38:09.099Z,1.08
2022-11-07T14:40:36.634Z,1.00
2022-11-07T14:43:04.227Z,1.10
2022-11-07T14:46:10.112Z,1.23
2022-11-07T14:48:21.218Z,1.17
2022-11-07T14:50:48.088Z,2.30
2022-11-07T14:53:18.901Z,1.65
2022-11-07T14:55:49.389Z,1.52
2022-11-07T14:58:18.606Z,2.88
2022-11-07T15:01:07.933Z,2.33
2022-11-07T15:03:37.188Z,1.95
2022-11-07T15:06:03.835Z,1.88
2022-11-07T15:08:33.422Z,2.20
2022-11-07T15:11:02.785Z,1.90
2022-11-07T15:13:32.857Z,1.63
2022-11-07T15:16:13.640Z,1.40
2022-11-07T15:18:47.347Z,1.38
2022-11-07T15:21:28.342Z,1.50
2022-11-07T15:23:55.025Z,1.40
2022-11-07T15:26:23.629Z,1.15
2022-11-07T15:28:52.700Z,1.40
2022-11-07T15:31:28.614Z,1.35
2022-11-07T15:33:57.788Z,1.55
2022-11-07T15:36:25.346Z,1.20
2022-11-07T15:38:52.369Z,1.15
2022-11-07T15:41:19.405Z,1.58
2022-11-07T15:43:45.795Z,2.63
2022-11-07T15:46:25.291Z,2.13
2022-11-07T15:48:51.831Z,1.60
2022-11-07T15:51:18.247Z,1.88
2022-11-07T15:53:44.754Z,1.90
2022-11-07T15:56:15.757Z,2.10
2022-11-07T16:01:09.785Z,1.80
2022-11-07T16:03:36.244Z,1.65
2022-11-07T16:06:02.932Z,1.45
2022-11-07T16:08:30.387Z,1.63
2022-11-07T16:11:00.954Z,1.77
2022-11-07T16:13:28.151Z,2.33
2022-11-07T16:15:59.005Z,2.88
2022-11-07T16:18:26.091Z,2.92
2022-11-07T16:20:52.879Z,2.55
2022-11-07T16:23:20.006Z,2.47
2022-11-07T16:25:50.222Z,2.97
2022-11-07T16:28:24.530Z,2.70
2022-11-07T16:30:51.905Z,2.85
2022-11-07T16:33:19.513Z,3.40
2022-11-07T16:35:52.561Z,3.03
2022-11-07T16:38:22.032Z,4.47
2022-11-07T16:40:48.474Z,4.18
2022-11-07T16:43:15.426Z,3.17
2022-11-07T16:45:52.944Z,3.20
2022-11-07T16:48:28.462Z,2.10
2022-11-07T16:50:56.149Z,2.38
2022-11-07T16:53:24.046Z,2.63
2022-11-07T16:55:54.057Z,1.73
2022-11-07T16:58:32.266Z,1.83
2022-11-07T17:01:01.968Z,3.40
2022-11-07T17:03:29.292Z,9.55
2022-11-07T17:05:59.471Z,6.75
2022-11-07T17:08:32.497Z,9.13
2022-11-07T17:10:58.841Z,8.52
2022-11-07T17:13:25.198Z,2.50
2022-11-07T17:15:51.854Z,1.70
2022-11-07T17:18:22.969Z,1.58
2022-11-07T17:20:52.135Z,2.35
2022-11-07T17:23:23.941Z,2.90
2022-11-07T17:25:55.165Z,3.38
2022-11-07T17:28:22.327Z,2.08
2022-11-07T17:30:48.705Z,2.50
2022-11-07T17:33:15.261Z,2.20
2022-11-07T17:35:42.307Z,3.42
2022-11-07T17:38:16.282Z,2.45
2022-11-07T17:40:43.161Z,2.40
2022-11-07T17:43:09.611Z,2.10
2022-11-07T17:45:36.720Z,2.15
2022-11-07T17:48:03.399Z,2.58
2022-11-07T17:50:29.752Z,2.30
2022-11-07T17:52:56.074Z,3.00
2022-11-07T17:55:24.510Z,3.55
2022-11-07T17:57:50.934Z,3.60
2022-11-07T18:00:21.958Z,3.78
2022-11-07T18:02:51.327Z,19.90
2022-11-07T18:05:19.503Z,8.00
2022-11-07T18:07:46.381Z,5.55
2022-11-07T18:10:15.277Z,5.15
2022-11-07T18:12:42.225Z,4.80
2022-11-07T18:15:11.833Z,5.47
2022-11-07T18:17:39.946Z,4.80
2022-11-07T18:20:07.581Z,5.70
2022-11-07T18:22:35.082Z,4.45
2022-11-07T18:25:01.517Z,3.95
2022-11-07T18:27:27.928Z,4.43
2022-11-07T18:29:54.362Z,3.72
2022-11-07T18:32:20.825Z,3.90
2022-11-07T18:34:47.241Z,3.30
2022-11-07T18:37:13.742Z,5.30
2022-11-07T18:39:41.187Z,4.65
2022-11-07T18:42:07.581Z,4.47
2022-11-07T18:44:34.016Z,25.35
2022-11-07T18:47:00.560Z,12.02
2022-11-07T18:49:27.251Z,6.25
2022-11-07T18:51:53.648Z,5.72
2022-11-07T18:54:21.984Z,5.43
2022-11-07T18:56:48.618Z,4.55
2022-11-07T18:59:15.109Z,4.30
2022-11-07T19:01:41.707Z,4.60
2022-11-07T19:04:10.252Z,5.60
2022-11-07T19:06:36.762Z,5.25
2022-11-07T19:09:03.717Z,4.85
2022-11-07T19:11:31.352Z,6.15
2022-11-07T19:14:02.247Z,6.45
2022-11-07T19:16:29.685Z,7.38
2022-11-07T19:18:58.199Z,8.45
2022-11-07T19:21:25.671Z,8.25
2022-11-07T19:23:52.115Z,7.63
2022-11-07T19:26:21.782Z,6.60
2022-11-07T19:28:48.494Z,8.55
2022-11-07T19:31:15.301Z,8.23
2022-11-07T19:33:42.740Z,7.10
2022-11-07T19:36:14.156Z,7.45
2022-11-07T19:38:40.631Z,7.90
2022-11-07T19:41:08.528Z,8.35
2022-11-07T19:43:35.990Z,6.97
2022-11-07T19:46:10.452Z,6.10
2022-11-07T19:48:36.861Z,5.28
2022-11-07T19:51:07.390Z,5.82
2022-11-07T19:53:33.922Z,7.45
2022-11-07T19:56:15.374Z,8.27
2022-11-07T19:58:42.470Z,6.90
2022-11-07T20:01:10.685Z,7.70
2022-11-07T20:03:38.519Z,6.15
2022-11-07T20:06:09.976Z,5.70
2022-11-07T20:08:36.419Z,9.77
2022-11-07T20:11:03.334Z,8.15
2022-11-07T20:13:29.738Z,7.97
2022-11-07T20:15:57.551Z,6.75
2022-11-07T20:18:24.384Z,5.82
2022-11-07T20:20:50.792Z,6.80
2022-11-07T20:23:17.377Z,7.38
2022-11-07T20:25:44.885Z,7.32
2022-11-07T20:28:11.269Z,7.57
2022-11-07T20:30:41.015Z,6.78
2022-11-07T20:33:07.372Z,6.90
2022-11-07T20:35:33.749Z,6.68
2022-11-07T20:38:00.112Z,7.18
2022-11-07T20:40:29.456Z,7.95
2022-11-07T20:42:56.924Z,7.50
2022-11-07T20:45:23.523Z,7.18
2022-11-07T20:47:51.286Z,7.43
2022-11-07T20:50:18.285Z,6.68
2022-11-07T20:52:44.650Z,6.60
2022-11-07T20:55:11.632Z,8.13
2022-11-07T20:57:38.009Z,7.72
2022-11-07T21:00:04.863Z,7.50
2022-11-07T21:02:31.297Z,7.22
2022-11-07T21:05:16.824Z,7.57
2022-11-07T21:07:44.489Z,6.35
2022-11-07T21:10:11.219Z,6.03
2022-11-07T21:12:37.622Z,6.43
2022-11-07T21:15:04.410Z,6.97
2022-11-07T21:17:30.810Z,7.22
2022-11-07T21:19:58.161Z,7.72
2022-11-07T21:22:29.216Z,7.53
2022-11-07T21:24:56.021Z,6.45
2022-11-07T21:27:22.402Z,7.75
2022-11-07T21:29:48.938Z,6.95
2022-11-07T21:32:15.385Z,7.43
2022-11-07T21:34:42.658Z,7.30
2022-11-07T21:37:09.930Z,7.72
2022-11-07T21:39:36.344Z,7.20
2022-11-07T21:42:02.777Z,8.30
2022-11-07T21:44:29.117Z,10.07
2022-11-07T21:46:55.571Z,9.10
2022-11-07T21:49:21.911Z,9.80
2022-11-07T21:51:50.110Z,6.70
2022-11-07T21:54:16.505Z,7.60
2022-11-07T21:56:42.946Z,7.78
2022-11-07T21:59:11.466Z,6.57
2022-11-07T22:01:39.160Z,5.50
2022-11-07T22:04:11.115Z,5.70
2022-11-07T22:06:43.900Z,5.60
2022-11-07T22:09:13.693Z,5.97
2022-11-07T22:11:40.507Z,5.40
2022-11-07T22:14:07.048Z,5.43
2022-11-07T22:16:33.702Z,6.25
2022-11-07T22:19:00.470Z,6.47
2022-11-07T22:21:27.267Z,5.90
2022-11-07T22:23:53.655Z,5.97
2022-11-07T22:26:25.263Z,6.65
2022-11-07T22:28:52.137Z,6.93
2022-11-07T22:31:24.302Z,6.63
2022-11-07T22:33:52.253Z,7.32
2022-11-07T22:36:18.736Z,7.30
2022-11-07T22:38:45.277Z,6.43
2022-11-07T22:41:17.778Z,7.15
2022-11-07T22:43:46.754Z,6.45
2022-11-07T22:46:16.773Z,5.93
2022-11-07T22:48:44.757Z,6.47
2022-11-07T22:51:25.730Z,6.78
2022-11-07T22:54:13.189Z,7.22
2022-11-07T22:56:41.619Z,6.95
2022-11-07T22:59:11.148Z,7.25
2022-11-07T23:01:41.013Z,6.85
2022-11-07T23:04:12.301Z,6.20
2022-11-07T23:09:05.088Z,7.25
2022-11-07T23:11:49.818Z,7.57
2022-11-07T23:14:19.316Z,7.30
2022-11-07T23:16:53.657Z,7.60
2022-11-07T23:19:22.475Z,7.63
2022-11-07T23:21:51.775Z,8.25
2022-11-07T23:24:18.738Z,8.88
2022-11-07T23:26:45.169Z,7.78
2022-11-07T23:29:23.905Z,9.65
2022-11-07T23:31:51.263Z,9.25
2022-11-07T23:34:19.124Z,9.98
2022-11-07T23:36:45.985Z,8.70
2022-11-07T23:39:18.093Z,9.70
2022-11-07T23:41:44.671Z,10.13
2022-11-07T23:44:11.992Z,8.50
2022-11-07T23:46:57.593Z,9.88
2022-11-07T23:49:43.003Z,10.52
2022-11-07T23:52:09.448Z,9.77
2022-11-07T23:54:54.463Z,13.35
2022-11-07T23:57:21.016Z,11.57
